createdAt,value
2022-08-07T00:01:12.706Z,0.93
2022-08-07T00:06:29.602Z,0.80
2022-08-07T00:11:35.775Z,0.60
2022-08-07T00:16:49.886Z,0.50
2022-08-07T00:21:56.540Z,0.63
2022-08-07T00:27:07.340Z,0.50
2022-08-07T00:32:09.521Z,0.40
2022-08-07T00:37:18.573Z,0.30
2022-08-07T00:42:28.984Z,0.30
2022-08-07T00:48:08.736Z,0.30
2022-08-07T00:52:53.608Z,0.52
2022-08-07T00:57:56.336Z,0.40
2022-08-07T01:02:58.154Z,0.40
2022-08-07T01:07:59.928Z,0.50
2022-08-07T01:13:01.931Z,0.82
2022-08-07T01:18:05.124Z,0.33
2022-08-07T01:23:12.153Z,0.40
2022-08-07T01:28:14.522Z,0.40
2022-08-07T01:33:17.123Z,0.40
2022-08-07T01:38:24.674Z,0.30
2022-08-07T01:43:37.967Z,0.30
2022-08-07T01:48:49.737Z,0.30
2022-08-07T01:54:09.665Z,0.45
2022-08-07T01:59:21.701Z,0.50
2022-08-07T02:04:32.297Z,0.53
2022-08-07T02:09:58.465Z,0.40
2022-08-07T02:14:58.432Z,0.38
2022-08-07T02:20:09.709Z,0.40
2022-08-07T02:25:20.367Z,0.38
2022-08-07T02:30:43.427Z,0.70
2022-08-07T02:36:30.962Z,0.80
2022-08-07T02:41:08.448Z,0.77
2022-08-07T02:46:14.064Z,0.90
2022-08-07T02:51:42.029Z,1.38
2022-08-07T02:56:42.141Z,1.40
2022-08-07T03:01:47.231Z,1.40
2022-08-07T03:06:54.731Z,1.52
2022-08-07T03:11:58.052Z,1.30
2022-08-07T03:17:05.557Z,1.25
2022-08-07T03:22:18.895Z,0.90
2022-08-07T03:27:30.588Z,0.90
2022-08-07T03:32:56.993Z,1.05
2022-08-07T03:38:04.761Z,1.23
2022-08-07T03:43:13.860Z,1.70
2022-08-07T03:48:16.822Z,1.10
2022-08-07T03:53:18.648Z,1.20
2022-08-07T03:59:08.644Z,1.40
2022-08-07T04:03:55.453Z,1.33
2022-08-07T04:08:57.867Z,1.88
2022-08-07T04:14:10.806Z,1.23
2022-08-07T04:19:23.901Z,1.10
2022-08-07T04:24:46.324Z,1.07
2022-08-07T04:30:01.364Z,1.20
2022-08-07T04:35:07.246Z,1.30
2022-08-07T04:40:13.242Z,1.20
2022-08-07T04:45:20.976Z,1.55
2022-08-07T04:50:45.341Z,1.40
2022-08-07T04:58:15.425Z,1.20
2022-08-07T05:02:08.271Z,1.17
2022-08-07T05:07:30.572Z,1.52
2022-08-07T05:12:53.836Z,1.27
2022-08-07T05:18:10.296Z,1.40
2022-08-07T05:23:20.226Z,1.40
2022-08-07T05:28:33.615Z,1.53
2022-08-07T05:33:37.085Z,1.50
2022-08-07T05:38:59.437Z,1.38
2022-08-07T05:44:08.636Z,1.60
2022-08-07T05:49:14.507Z,1.27
2022-08-07T05:54:31.538Z,1.42
2022-08-07T05:59:57.606Z,1.40
2022-08-07T06:05:04.618Z,1.50
2022-08-07T06:10:15.120Z,1.33
2022-08-07T06:15:20.030Z,1.63
2022-08-07T06:20:31.648Z,1.60
2022-08-07T06:25:54.656Z,1.70
2022-08-07T06:30:58.984Z,1.60
2022-08-07T06:36:12.201Z,1.67
2022-08-07T06:42:00.702Z,1.98
2022-08-07T06:47:12.039Z,1.27
2022-08-07T06:52:18.343Z,1.10
2022-08-07T06:57:43.467Z,0.68
2022-08-07T07:02:57.189Z,0.60
2022-08-07T07:08:06.646Z,0.52
2022-08-07T07:13:16.243Z,0.77
2022-08-07T07:18:49.054Z,0.53
2022-08-07T07:24:07.062Z,0.88
2022-08-07T07:29:39.780Z,0.70
2022-08-07T07:34:43.868Z,0.70
2022-08-07T07:39:54.293Z,0.55
2022-08-07T07:44:59.752Z,0.60
2022-08-07T07:50:32.728Z,0.47
2022-08-07T07:55:25.623Z,0.50
2022-08-07T08:00:40.786Z,0.57
2022-08-07T08:05:54.372Z,0.80
2022-08-07T08:10:57.816Z,0.60
2022-08-07T08:16:02.179Z,0.73
2022-08-07T08:21:05.054Z,0.90
2022-08-07T08:26:12.075Z,0.85
2022-08-07T08:31:29.883Z,1.20
2022-08-07T08:36:46.356Z,0.75
2022-08-07T08:42:03.245Z,0.63
2022-08-07T08:47:47.312Z,1.00
2022-08-07T08:53:00.229Z,1.65
2022-08-07T08:58:06.809Z,1.25
2022-08-07T09:03:49.538Z,1.10
2022-08-07T09:09:30.129Z,0.90
2022-08-07T09:14:50.887Z,1.00
2022-08-07T09:19:59.221Z,0.80
2022-08-07T09:25:17.467Z,0.90
2022-08-07T09:30:20.725Z,0.90
2022-08-07T09:36:04.671Z,0.80
2022-08-07T09:41:11.668Z,0.83
2022-08-07T09:47:25.317Z,0.70
2022-08-07T09:52:15.605Z,1.03
2022-08-07T09:58:03.293Z,0.85
2022-08-07T10:04:05.879Z,1.10
2022-08-07T10:09:34.260Z,0.80
2022-08-07T10:15:08.516Z,0.70
2022-08-07T10:20:32.534Z,1.10
2022-08-07T10:25:55.827Z,0.77
2022-08-07T10:31:11.140Z,0.70
2022-08-07T10:36:36.377Z,0.90
2022-08-07T10:41:46.545Z,0.70
2022-08-07T10:47:14.662Z,0.80
2022-08-07T10:52:33.910Z,0.82
2022-08-07T10:57:56.571Z,0.50
2022-08-07T11:03:13.143Z,0.80
2022-08-07T11:08:39.519Z,0.73
2022-08-07T11:14:45.487Z,0.65
2022-08-07T11:19:34.569Z,0.82
2022-08-07T11:24:52.058Z,0.70
2022-08-07T11:30:18.936Z,1.00
2022-08-07T11:35:25.049Z,1.00
2022-08-07T11:40:49.524Z,0.77
2022-08-07T11:46:28.314Z,0.90
2022-08-07T11:51:41.993Z,0.80
2022-08-07T11:57:05.488Z,0.70
2022-08-07T12:02:33.298Z,0.70
2022-08-07T12:07:53.295Z,0.60
2022-08-07T12:13:11.737Z,0.52
2022-08-07T12:19:01.474Z,0.40
2022-08-07T12:24:38.161Z,0.50
2022-08-07T12:30:08.006Z,0.60
2022-08-07T12:35:13.352Z,0.40
2022-08-07T12:40:48.909Z,0.55
2022-08-07T12:45:50.340Z,0.45
2022-08-07T12:51:12.945Z,0.38
2022-08-07T12:56:24.842Z,0.40
2022-08-07T13:02:03.990Z,0.60
2022-08-07T13:08:12.303Z,0.40
2022-08-07T13:13:01.370Z,0.40
2022-08-07T13:18:30.682Z,0.40
2022-08-07T13:24:11.406Z,0.55
2022-08-07T13:29:23.311Z,0.50
2022-08-07T13:34:34.035Z,0.40
2022-08-07T13:40:33.079Z,0.40
2022-08-07T13:46:06.821Z,0.50
2022-08-07T13:50:45.156Z,0.45
2022-08-07T13:55:58.745Z,0.47
2022-08-07T14:01:21.889Z,0.70
2022-08-07T14:06:30.928Z,0.50
2022-08-07T14:11:53.935Z,0.45
2022-08-07T14:17:32.205Z,0.50
2022-08-07T14:22:34.785Z,0.50
2022-08-07T14:28:11.178Z,0.63
2022-08-07T14:33:04.995Z,0.60
2022-08-07T14:38:08.721Z,0.57
2022-08-07T14:43:57.357Z,0.80
2022-08-07T14:48:54.393Z,0.60
2022-08-07T14:54:30.652Z,0.60
2022-08-07T15:00:06.274Z,0.45
2022-08-07T15:10:16.445Z,0.70
2022-08-07T15:15:42.786Z,0.50
2022-08-07T15:20:55.830Z,0.40
2022-08-07T15:25:59.418Z,0.50
2022-08-07T15:31:05.698Z,0.55
2022-08-07T15:36:09.284Z,0.30
2022-08-07T15:41:23.425Z,0.70
2022-08-07T15:52:01.961Z,0.30
2022-08-07T15:57:10.692Z,0.52
2022-08-07T16:02:35.443Z,0.60
2022-08-07T16:08:33.589Z,0.57
2022-08-07T16:14:00.191Z,0.50
2022-08-07T16:19:42.653Z,0.60
2022-08-07T16:24:59.553Z,0.50
2022-08-07T16:30:31.870Z,0.52
2022-08-07T16:36:07.542Z,0.50
2022-08-07T16:42:01.262Z,0.60
2022-08-07T16:47:42.289Z,0.70
2022-08-07T16:54:02.757Z,0.90
2022-08-07T16:59:10.639Z,0.60
2022-08-07T17:04:13.927Z,0.60
2022-08-07T17:10:06.420Z,0.60
2022-08-07T17:15:03.020Z,0.70
2022-08-07T17:20:22.721Z,0.82
2022-08-07T17:25:52.222Z,0.68
2022-08-07T17:31:16.619Z,0.57
2022-08-07T17:36:26.064Z,0.90
2022-08-07T17:42:04.932Z,0.60
2022-08-07T17:47:38.145Z,0.65
2022-08-07T17:52:53.872Z,0.68
2022-08-07T17:58:07.325Z,0.63
2022-08-07T18:04:04.403Z,0.50
2022-08-07T18:09:05.805Z,0.65
2022-08-07T18:14:46.285Z,0.80
2022-08-07T18:21:04.199Z,0.90
2022-08-07T18:25:40.373Z,0.60
2022-08-07T18:30:58.327Z,0.70
2022-08-07T18:36:11.489Z,0.70
2022-08-07T18:41:22.431Z,0.83
2022-08-07T18:46:34.698Z,0.57
2022-08-07T18:52:53.866Z,0.40
2022-08-07T18:57:58.771Z,0.60
2022-08-07T19:03:15.932Z,0.80
2022-08-07T19:08:24.902Z,0.60
2022-08-07T19:13:40.974Z,0.83
2022-08-07T19:19:06.905Z,1.20
2022-08-07T19:24:43.484Z,0.93
2022-08-07T19:31:03.821Z,0.90
2022-08-07T19:35:18.891Z,0.88
2022-08-07T19:40:31.570Z,0.70
2022-08-07T19:46:05.077Z,0.90
2022-08-07T19:51:04.195Z,1.00
2022-08-07T19:57:51.140Z,0.82
2022-08-07T20:01:57.195Z,0.90
2022-08-07T20:07:01.157Z,1.00
2022-08-07T20:12:31.226Z,1.40
2022-08-07T20:17:30.468Z,1.08
2022-08-07T20:22:34.711Z,0.80
2022-08-07T20:27:46.261Z,1.00
2022-08-07T20:32:50.241Z,0.60
2022-08-07T20:37:58.259Z,0.60
2022-08-07T20:43:14.437Z,0.90
2022-08-07T20:48:28.372Z,0.70
2022-08-07T20:54:03.914Z,0.70
2022-08-07T20:59:01.342Z,0.68
2022-08-07T21:04:22.100Z,0.75
2022-08-07T21:09:35.391Z,0.73
2022-08-07T21:14:56.921Z,0.70
2022-08-07T21:20:05.112Z,0.82
2022-08-07T21:25:20.162Z,0.80
2022-08-07T21:30:37.511Z,0.60
2022-08-07T21:36:11.809Z,0.80
2022-08-07T21:41:38.272Z,0.90
2022-08-07T21:46:57.971Z,1.00
2022-08-07T21:52:11.605Z,1.25
2022-08-07T21:57:51.730Z,1.00
2022-08-07T22:03:06.589Z,0.80
2022-08-07T22:08:10.508Z,1.07
2022-08-07T22:13:14.467Z,0.93
2022-08-07T22:18:28.355Z,1.17
2022-08-07T22:23:44.984Z,1.10
2022-08-07T22:28:53.794Z,0.80
2022-08-07T22:34:05.034Z,1.20
2022-08-07T22:39:52.473Z,1.40
2022-08-07T22:45:02.507Z,1.67
2022-08-07T22:50:29.145Z,1.50
2022-08-07T22:55:59.199Z,1.50
2022-08-07T23:01:15.232Z,1.80
2022-08-07T23:06:41.480Z,1.63
2022-08-07T23:11:49.836Z,1.20
2022-08-07T23:17:27.924Z,1.27
2022-08-07T23:22:52.373Z,1.10
2022-08-07T23:28:28.889Z,1.25
2022-08-07T23:34:36.602Z,0.98
2022-08-07T23:39:55.778Z,1.10
2022-08-07T23:45:15.205Z,1.83
2022-08-07T23:50:35.465Z,2.42
2022-08-07T23:55:55.839Z,1.27
